Time;durP1;ratioP1;P1;durP2;ratioP2;P2;SDS_P1;SDS_P2;PMS_P1;PMS_P2;Temp;Humidity;BMP_temperature;BMP_pressure;BME280_temperature;BME280_humidity;BME280_pressure;Samples;Min_cycle;Max_cycle;Signal;HPM_P1;HPM_P2
2023/11/17 00:04:28;;;;;;;3.00;2.90;;;5.50;99.90;;;5.88;100.00;97256.59;10448147;28;20306;-64
2023/11/17 00:09:31;;;;;;;3.27;3.07;;;5.60;99.90;;;5.99;100.00;97264.06;10448300;28;21907;-65
2023/11/17 00:14:36;;;;;;;3.27;3.07;;;5.70;99.90;;;6.09;100.00;97274.00;10448373;28;20217;-65
2023/11/17 00:19:39;;;;;;;3.40;3.20;;;5.80;99.90;;;6.17;100.00;97293.13;10444321;28;20302;-65
2023/11/17 00:24:43;;;;;;;2.90;2.70;;;5.80;99.90;;;6.18;100.00;97306.69;10446744;28;20221;-65
2023/11/17 00:29:49;;;;;;;2.73;2.63;;;5.70;99.90;;;6.19;100.00;97328.78;10445600;28;20241;-65
2023/11/17 00:34:52;;;;;;;2.63;2.53;;;5.80;99.90;;;6.16;100.00;97357.34;10447535;28;20359;-64
2023/11/17 00:39:56;;;;;;;2.87;2.67;;;5.70;99.90;;;6.20;100.00;97368.56;10448575;28;20705;-65
2023/11/17 00:45:00;;;;;;;3.17;2.97;;;5.80;99.90;;;6.24;100.00;97381.59;10442702;28;20225;-65
2023/11/17 00:50:10;;;;;;;3.07;2.87;;;5.80;99.90;;;6.23;100.00;97405.19;10446107;28;20664;-65
2023/11/17 00:55:14;;;;;;;2.87;2.67;;;5.80;99.90;;;6.25;100.00;97428.13;10445206;28;20233;-65
2023/11/17 01:00:19;;;;;;;3.07;2.87;;;5.80;99.90;;;6.26;100.00;97443.44;10444007;28;20229;-65
2023/11/17 01:05:22;;;;;;;3.23;3.00;;;5.80;99.90;;;6.23;100.00;97471.16;10440340;22;20229;-81
2023/11/17 01:10:26;;;;;;;2.93;2.73;;;5.80;99.90;;;6.25;100.00;97482.28;10423135;28;20320;-79
2023/11/17 01:15:34;;;;;;;3.27;3.00;;;5.80;99.90;;;6.34;100.00;97511.63;10381437;28;20222;-81
2023/11/17 01:20:40;;;;;;;2.90;2.47;;;5.80;99.90;;;6.30;100.00;97533.38;10393020;28;20259;-78
2023/11/17 01:25:44;;;;;;;2.63;2.40;;;5.80;99.90;;;6.21;100.00;97553.94;10390039;28;20222;-81
2023/11/17 01:30:48;;;;;;;2.80;2.60;;;5.80;99.90;;;6.38;100.00;97569.41;10382136;28;20280;-80
2023/11/17 01:35:52;;;;;;;2.30;2.20;;;5.80;99.90;;;6.13;100.00;97589.69;10383386;28;20639;-80
2023/11/17 01:40:57;;;;;;;2.23;2.03;;;5.70;99.90;;;5.97;100.00;97602.94;10383905;28;20230;-80
2023/11/17 01:46:03;;;;;;;1.90;1.90;;;5.60;99.90;;;5.99;100.00;97629.31;10389771;28;20218;-79
2023/11/17 01:51:07;;;;;;;2.23;2.07;;;5.50;99.90;;;5.96;100.00;97646.84;10379965;28;20955;-80
2023/11/17 01:56:11;;;;;;;2.30;2.20;;;5.50;99.90;;;5.92;100.00;97658.38;10383796;28;20229;-80
2023/11/17 02:01:16;;;;;;;2.43;2.33;;;5.50;99.90;;;6.10;100.00;97679.16;10381751;28;20320;-79
2023/11/17 02:06:29;;;;;;;1.63;1.53;;;5.60;99.90;;;5.84;100.00;97688.28;10378169;28;20257;-80
2023/11/17 02:11:42;;;;;;;1.83;1.73;;;5.40;99.90;;;5.90;100.00;97707.25;10382304;28;20312;-80
2023/11/17 02:16:48;;;;;;;2.00;1.90;;;5.50;99.90;;;5.90;100.00;97733.50;10375895;28;20234;-80
2023/11/17 02:21:53;;;;;;;2.00;1.90;;;5.50;99.90;;;6.01;100.00;97746.97;10376491;28;20249;-80
2023/11/17 02:27:12;;;;;;;2.27;2.17;;;5.50;99.90;;;5.94;100.00;97755.81;10371058;28;20226;-80
2023/11/17 02:32:24;;;;;;;2.20;2.10;;;5.50;99.90;;;5.97;100.00;97762.75;10373715;28;21496;-80
2023/11/17 02:37:27;;;;;;;1.83;1.83;;;5.60;99.90;;;5.99;100.00;97764.63;10375168;28;20233;-80
2023/11/17 02:42:34;;;;;;;2.57;2.07;;;5.50;99.90;;;6.02;100.00;97779.22;10372865;28;20233;-81
2023/11/17 02:47:39;;;;;;;2.33;2.23;;;5.60;99.90;;;6.15;100.00;97788.56;10384942;28;20234;-81
2023/11/17 02:52:48;;;;;;;2.30;2.20;;;5.60;99.90;;;6.10;100.00;97795.88;10375989;28;20277;-81
2023/11/17 02:57:54;;;;;;;2.50;2.27;;;5.60;99.90;;;6.05;100.00;97803.13;10367122;28;20258;-82
2023/11/17 03:02:59;;;;;;;2.37;2.27;;;5.60;99.90;;;6.05;100.00;97812.41;10381723;28;20222;-80
2023/11/17 03:08:02;;;;;;;2.90;2.80;;;5.60;99.90;;;6.04;100.00;97825.88;10383873;28;20295;-80
2023/11/17 03:13:06;;;;;;;2.47;2.27;;;5.60;99.90;;;6.04;100.00;97836.03;10386446;28;20708;-81
2023/11/17 03:18:11;;;;;;;2.83;2.63;;;5.60;99.90;;;5.99;100.00;97839.88;10378016;28;20234;-82
2023/11/17 03:23:16;;;;;;;2.83;2.63;;;5.50;99.90;;;6.02;100.00;97845.16;10384246;28;20230;-82
2023/11/17 03:28:19;;;;;;;3.30;3.00;;;5.60;99.90;;;6.05;100.00;97860.63;10389352;28;20995;-81
2023/11/17 03:33:24;;;;;;;3.40;3.20;;;5.60;99.90;;;6.07;100.00;97869.22;10385314;28;20222;-80
2023/11/17 03:38:27;;;;;;;3.87;3.67;;;5.60;99.90;;;6.14;100.00;97868.91;10388227;28;20223;-81
2023/11/17 03:43:30;;;;;;;4.07;3.77;;;5.70;99.90;;;6.11;100.00;97876.28;10385767;28;20241;-81
2023/11/17 03:48:35;;;;;;;3.63;3.40;;;5.70;99.90;;;6.14;100.00;97876.50;10390376;28;20242;-81
2023/11/17 03:53:38;;;;;;;4.10;3.70;;;5.70;99.90;;;6.10;100.00;97884.69;10380073;28;20230;-81
2023/11/17 03:58:41;;;;;;;5.07;4.60;;;5.70;99.90;;;6.12;100.00;97883.13;10387101;28;20711;-81
2023/11/17 04:03:46;;;;;;;6.43;5.00;;;5.70;99.90;;;6.13;100.00;97897.59;10385462;28;20222;-81
2023/11/17 04:08:50;;;;;;;5.13;4.63;;;5.70;99.90;;;6.17;100.00;97899.56;10375273;28;20222;-81
2023/11/17 04:13:53;;;;;;;6.23;5.70;;;5.70;99.90;;;6.24;100.00;97909.44;10388127;28;20308;-80
2023/11/17 04:18:58;;;;;;;6.80;6.20;;;5.80;99.90;;;6.17;100.00;97912.25;10381572;28;20246;-80
2023/11/17 04:24:01;;;;;;;6.83;6.33;;;5.70;99.90;;;6.20;100.00;97914.16;10382664;28;20226;-79
2023/11/17 04:29:05;;;;;;;6.97;6.27;;;5.70;99.90;;;6.26;100.00;97922.22;10386418;28;20249;-79
2023/11/17 04:34:11;;;;;;;7.50;6.80;;;5.80;99.90;;;6.22;100.00;97931.25;10383008;28;20225;-80
2023/11/17 04:39:18;;;;;;;7.20;6.50;;;5.80;99.90;;;6.26;100.00;97938.31;10382964;28;20245;-80
2023/11/17 04:44:21;;;;;;;7.33;6.67;;;5.80;99.90;;;6.29;100.00;97940.22;10386953;28;20222;-80
2023/11/17 04:49:27;;;;;;;6.03;5.43;;;5.80;99.90;;;6.24;100.00;97944.97;10380960;28;20345;-82
2023/11/17 04:54:30;;;;;;;7.70;6.67;;;5.80;99.90;;;6.34;100.00;97948.19;10382429;28;20227;-81
2023/11/17 04:59:33;;;;;;;7.40;6.70;;;5.90;99.90;;;6.36;100.00;97959.34;10379062;28;20648;-81
2023/11/17 05:04:38;;;;;;;6.87;6.27;;;5.80;99.90;;;6.30;100.00;97968.25;10374449;28;20226;-82
2023/11/17 05:09:42;;;;;;;8.60;7.20;;;5.80;99.90;;;6.34;100.00;97971.03;10386288;28;20306;-82
2023/11/17 05:14:46;;;;;;;8.57;7.23;;;5.80;99.90;;;6.28;100.00;97979.94;10381967;28;20218;-81
2023/11/17 05:19:52;;;;;;;7.60;6.80;;;5.80;99.90;;;6.25;100.00;97979.72;10375373;28;20334;-80
2023/11/17 05:24:55;;;;;;;7.40;6.70;;;5.70;99.90;;;6.22;100.00;97981.13;10380174;28;20226;-81
2023/11/17 05:29:58;;;;;;;9.67;6.23;;;5.70;99.90;;;6.19;100.00;97986.88;10376668;28;20226;-82
2023/11/17 05:35:05;;;;;;;6.70;6.07;;;5.70;99.90;;;6.20;100.00;97988.63;10382733;28;20230;-79
2023/11/17 05:40:09;;;;;;;7.03;6.53;;;5.80;99.90;;;6.23;100.00;97988.84;10377355;28;20230;-82
2023/11/17 05:45:14;;;;;;;7.97;6.77;;;5.70;99.90;;;6.25;100.00;98000.00;10383435;28;20285;-80
2023/11/17 05:50:20;;;;;;;8.20;6.67;;;5.80;99.90;;;6.34;100.00;98001.47;10379884;28;20374;-81
2023/11/17 05:55:23;;;;;;;8.00;6.37;;;5.80;99.90;;;6.23;100.00;97999.00;10382908;28;20233;-82
2023/11/17 06:00:27;;;;;;;17.37;12.40;;;5.80;99.90;;;6.27;100.00;98007.75;10384783;28;20372;-81
2023/11/17 06:05:32;;;;;;;11.13;10.13;;;5.70;99.90;;;6.20;100.00;98008.91;10389431;28;20246;-81
2023/11/17 06:10:36;;;;;;;9.43;8.27;;;5.70;99.90;;;6.23;100.00;98009.16;10384181;28;20237;-82
2023/11/17 06:15:39;;;;;;;9.03;7.87;;;5.70;99.90;;;6.25;100.00;98017.78;10394277;28;20239;-81
2023/11/17 06:20:44;;;;;;;9.03;7.43;;;5.80;99.90;;;6.28;100.00;98014.59;10380025;28;20302;-81
2023/11/17 06:25:47;;;;;;;10.43;8.97;;;5.80;99.90;;;6.29;100.00;98018.88;10372933;28;20227;-81
2023/11/17 06:30:51;;;;;;;11.20;8.70;;;5.80;99.90;;;6.26;100.00;98024.63;10370711;28;20743;-80
2023/11/17 06:35:58;;;;;;;9.50;8.33;;;5.80;99.90;;;6.35;100.00;98028.63;10365958;28;20238;-80
2023/11/17 06:41:01;;;;;;;10.17;7.20;;;5.80;99.90;;;6.35;100.00;98033.69;10372023;28;20236;-81
2023/11/17 06:46:05;;;;;;;8.67;7.60;;;5.80;99.90;;;6.34;100.00;98026.88;10368758;28;20320;-82
2023/11/17 06:51:10;;;;;;;10.10;7.83;;;5.80;99.90;;;6.27;100.00;98036.56;10378838;28;20237;-80
2023/11/17 06:56:14;;;;;;;12.30;8.73;;;5.80;99.90;;;6.31;100.00;98046.16;10372098;28;20353;-82
2023/11/17 07:01:20;;;;;;;11.43;9.57;;;5.80;99.90;;;6.37;100.00;98052.47;10376839;28;20309;-80
2023/11/17 07:06:27;;;;;;;9.23;8.17;;;5.80;99.90;;;6.32;100.00;98052.13;10374869;28;20238;-81
2023/11/17 07:11:32;;;;;;;8.13;7.33;;;5.80;99.90;;;6.29;100.00;98055.31;10382047;28;20398;-80
2023/11/17 07:16:35;;;;;;;9.03;7.43;;;5.90;99.90;;;6.36;100.00;98065.94;10382834;28;20290;-82
2023/11/17 07:21:50;;;;;;;7.40;6.50;;;5.90;99.90;;;6.26;100.00;98075.38;10383022;28;20238;-81
2023/11/17 07:26:54;;;;;;;11.57;8.10;;;5.80;99.90;;;6.40;100.00;98078.09;10385253;28;20223;-81
2023/11/17 07:32:04;;;;;;;10.13;8.43;;;5.80;99.90;;;6.36;100.00;98081.19;10390192;28;20797;-82
2023/11/17 07:37:08;;;;;;;11.17;9.13;;;5.90;99.90;;;6.38;100.00;98084.69;10386929;28;20600;-82
2023/11/17 07:42:13;;;;;;;10.37;9.30;;;5.90;99.90;;;6.38;100.00;98089.78;10385198;28;20257;-81
2023/11/17 07:47:16;;;;;;;9.17;8.23;;;5.90;99.90;;;6.36;100.00;98096.41;10385448;28;20222;-79
2023/11/17 07:52:23;;;;;;;7.87;7.27;;;5.90;99.90;;;6.37;100.00;98101.59;10390637;28;20246;-81
2023/11/17 07:57:26;;;;;;;9.53;7.50;;;5.90;99.90;;;6.42;100.00;98107.03;10390159;28;20222;-81
2023/11/17 08:02:30;;;;;;;8.50;7.10;;;6.00;99.90;;;6.43;100.00;98109.66;10389099;28;20239;-82
2023/11/17 08:07:35;;;;;;;10.37;8.63;;;6.00;99.90;;;6.39;100.00;98122.03;10387966;28;20218;-81
2023/11/17 08:12:39;;;;;;;9.23;7.77;;;5.90;99.90;;;6.37;100.00;98121.91;10389263;28;20245;-81
2023/11/17 08:17:42;;;;;;;8.60;7.70;;;5.90;99.90;;;6.38;100.00;98131.31;10390143;28;20230;-82
2023/11/17 08:22:48;;;;;;;11.70;9.90;;;5.90;99.90;;;6.59;100.00;98132.06;10390024;28;20230;-83
2023/11/17 08:27:51;;;;;;;9.20;7.90;;;6.00;99.90;;;6.55;100.00;98132.56;10384096;28;20237;-81
2023/11/17 08:32:55;;;;;;;10.23;9.27;;;6.00;99.90;;;6.57;100.00;98145.41;10386536;28;20226;-81
2023/11/17 08:37:59;;;;;;;9.37;7.97;;;6.10;99.90;;;6.58;100.00;98144.63;10388859;28;20289;-80
2023/11/17 08:43:03;;;;;;;9.10;8.13;;;6.10;99.90;;;6.57;100.00;98168.25;10392631;28;20222;-82
2023/11/17 08:48:07;;;;;;;9.37;8.27;;;6.10;99.90;;;6.55;100.00;98165.59;10388729;28;20668;-81
2023/11/17 08:53:11;;;;;;;9.13;8.23;;;6.10;99.90;;;6.49;100.00;98165.13;10392493;28;20238;-81
2023/11/17 08:58:14;;;;;;;9.10;7.97;;;6.10;99.90;;;6.51;100.00;98173.75;10379928;28;20261;-80
2023/11/17 09:03:18;;;;;;;10.07;9.07;;;6.10;99.90;;;6.60;100.00;98177.00;10380391;28;20226;-82
2023/11/17 09:08:23;;;;;;;12.13;9.00;;;6.10;99.90;;;6.74;100.00;98172.97;10388155;28;20241;-81
2023/11/17 09:13:28;;;;;;;10.17;8.97;;;6.20;99.90;;;6.81;100.00;98179.41;10389624;28;20250;-81
2023/11/17 09:18:32;;;;;;;11.50;10.33;;;6.20;99.90;;;6.70;100.00;98189.66;10384583;28;20234;-81
2023/11/17 09:23:36;;;;;;;12.23;9.70;;;6.20;99.90;;;6.77;100.00;98188.47;10386229;28;20231;-81
2023/11/17 09:28:39;;;;;;;12.90;9.17;;;6.20;99.90;;;6.80;100.00;98186.16;10383719;28;20305;-81
2023/11/17 09:33:43;;;;;;;10.97;9.03;;;6.30;99.90;;;6.80;100.00;98192.88;10384588;28;20222;-81
2023/11/17 09:38:48;;;;;;;10.27;8.77;;;6.20;99.90;;;6.80;100.00;98192.88;10383444;28;20261;-81
2023/11/17 09:43:57;;;;;;;10.80;9.00;;;6.30;99.90;;;6.77;100.00;98196.06;10382232;28;20239;-81
2023/11/17 09:49:04;;;;;;;12.33;9.40;;;6.30;99.90;;;6.85;100.00;98194.13;10389749;28;20230;-82
2023/11/17 09:54:13;;;;;;;11.27;9.97;;;6.30;99.90;;;6.88;100.00;98207.06;10386377;28;20770;-82
2023/11/17 09:59:18;;;;;;;12.00;8.93;;;6.30;99.90;;;6.99;100.00;98196.06;10374171;28;20758;-82
2023/11/17 10:04:22;;;;;;;11.27;8.70;;;6.40;99.90;;;7.01;100.00;98197.09;10383944;28;20242;-81
2023/11/17 10:09:28;;;;;;;11.73;9.90;;;6.40;99.90;;;7.05;100.00;98198.19;10386635;28;20260;-82
2023/11/17 10:14:34;;;;;;;11.57;10.03;;;6.40;99.90;;;7.12;100.00;98208.91;10386509;28;20248;-81
2023/11/17 10:19:41;;;;;;;9.80;8.80;;;6.50;99.90;;;7.05;100.00;98196.53;10383075;28;20220;-80
2023/11/17 10:24:46;;;;;;;9.10;8.27;;;6.40;99.90;;;7.02;100.00;98196.31;10387827;28;20591;-81
2023/11/17 10:29:50;;;;;;;9.77;8.03;;;6.50;99.90;;;7.07;100.00;98200.09;10372496;28;20242;-80
2023/11/17 10:35:16;;;;;;;9.77;8.83;;;6.50;99.90;;;7.16;100.00;98205.84;10385318;28;20249;-79
2023/11/17 10:40:27;;;;;;;11.83;10.17;;;6.50;99.90;;;7.08;100.00;98212.00;10385970;28;20230;-82
2023/11/17 10:45:30;;;;;;;12.20;9.57;;;6.50;99.90;;;7.16;100.00;98210.06;10387594;28;20734;-81
2023/11/17 10:50:35;;;;;;;17.57;13.07;;;6.50;99.90;;;7.11;100.00;98208.81;10384790;28;20586;-81
2023/11/17 10:55:42;;;;;;;18.20;13.97;;;6.50;99.90;;;7.17;100.00;98214.38;10377050;28;20280;-81
2023/11/17 11:00:48;;;;;;;12.40;10.73;;;6.60;99.90;;;7.10;100.00;98210.47;10378567;28;20232;-81
2023/11/17 11:05:58;;;;;;;17.53;13.43;;;6.50;99.90;;;7.17;100.00;98210.16;10374245;28;20250;-81
2023/11/17 11:11:04;;;;;;;28.40;24.90;;;6.60;99.90;;;7.06;100.00;98202.50;10379132;28;20223;-82
2023/11/17 11:16:10;;;;;;;9.53;8.63;;;6.60;99.90;;;7.15;100.00;98204.09;10377777;28;20309;-82
2023/11/17 11:21:17;;;;;;;9.53;8.73;;;6.50;99.90;;;7.14;100.00;98202.31;10387888;28;20226;-82
2023/11/17 11:26:21;;;;;;;9.30;8.50;;;6.50;99.90;;;7.12;100.00;98203.84;10393837;28;20224;-81
2023/11/17 11:31:25;;;;;;;8.70;7.90;;;6.50;99.90;;;7.20;100.00;98204.44;10381557;28;20606;-81
2023/11/17 11:36:29;;;;;;;8.93;8.13;;;6.50;99.90;;;7.16;100.00;98210.94;10381319;28;20314;-81
2023/11/17 11:41:34;;;;;;;9.20;8.40;;;6.50;99.90;;;7.11;100.00;98211.38;10389281;28;20762;-81
2023/11/17 11:46:38;;;;;;;9.30;8.47;;;6.50;99.90;;;7.12;100.00;98203.84;10383646;28;20222;-81
2023/11/17 11:51:49;;;;;;;8.00;7.30;;;6.60;99.90;;;7.20;100.00;98205.31;10378306;28;20230;-81
2023/11/17 11:56:55;;;;;;;9.47;8.70;;;6.60;99.90;;;7.21;100.00;98217.28;10383071;28;20589;-82
2023/11/17 12:01:59;;;;;;;18.10;16.20;;;6.60;99.90;;;7.11;100.00;98217.31;10375949;28;20238;-83
2023/11/17 12:07:36;;;;;;;13.60;12.33;;;6.60;99.90;;;7.13;100.00;98220.88;10384790;28;21001;-82
2023/11/17 12:12:41;;;;;;;11.40;10.30;;;6.60;99.90;;;7.01;100.00;98214.88;10383660;28;20596;-81
2023/11/17 12:17:53;;;;;;;14.37;13.00;;;6.60;99.90;;;7.02;100.00;98221.72;10388264;28;20230;-82
2023/11/17 12:23:00;;;;;;;12.30;11.10;;;6.50;99.90;;;7.08;100.00;98217.09;10391542;28;20231;-82
2023/11/17 12:28:06;;;;;;;12.23;11.10;;;6.50;99.90;;;7.14;100.00;98217.56;10395554;28;20226;-82
2023/11/17 12:33:18;;;;;;;11.77;10.70;;;6.60;99.90;;;7.06;100.00;98223.72;10372953;28;20234;-82
2023/11/17 12:38:22;;;;;;;9.50;8.50;;;6.60;99.90;;;7.12;100.00;98219.09;10376531;28;20238;-82
2023/11/17 12:43:31;;;;;;;22.23;17.73;;;6.60;99.90;;;7.11;100.00;98222.41;10381501;28;20317;-81
2023/11/17 12:48:38;;;;;;;9.43;8.53;;;6.60;99.90;;;7.17;100.00;98222.00;10374364;28;20214;-82
2023/11/17 12:53:45;;;;;;;9.43;8.50;;;6.60;99.90;;;7.28;100.00;98223.69;10382121;28;20682;-82
2023/11/17 12:58:56;;;;;;;13.50;11.00;;;6.70;99.90;;;7.22;100.00;98226.66;10376445;28;20231;-82
2023/11/17 13:03:59;;;;;;;9.90;8.90;;;6.70;99.90;;;7.38;100.00;98237.97;10381199;28;20248;-81
2023/11/17 13:09:09;;;;;;;10.03;9.07;;;6.80;99.90;;;7.42;100.00;98237.44;10381068;28;20226;-83
2023/11/17 13:14:22;;;;;;;8.57;7.67;;;6.70;99.90;;;7.30;100.00;98237.41;10387160;28;20226;-83
2023/11/17 13:19:25;;;;;;;15.37;13.00;;;6.70;99.90;;;7.32;100.00;98247.69;10390826;28;20226;-81
2023/11/17 13:24:29;;;;;;;11.63;9.57;;;6.80;99.90;;;7.35;100.00;98246.25;10385456;28;20218;-83
2023/11/17 13:29:39;;;;;;;10.77;8.30;;;6.80;99.90;;;7.36;100.00;98249.72;10382400;28;20782;-81
2023/11/17 13:34:42;;;;;;;8.57;7.73;;;6.70;99.90;;;7.34;100.00;98251.25;10383679;28;20219;-82
2023/11/17 13:39:48;;;;;;;8.43;7.37;;;6.70;99.90;;;7.28;100.00;98260.94;10386885;28;20221;-82
2023/11/17 13:44:53;;;;;;;10.73;9.53;;;6.80;99.90;;;7.26;100.00;98263.34;10374523;28;20237;-82
2023/11/17 13:50:14;;;;;;;9.40;7.90;;;6.80;99.90;;;7.33;100.00;98264.72;10370230;28;20703;-81
2023/11/17 13:55:19;;;;;;;9.30;7.63;;;6.80;99.90;;;7.44;100.00;98274.06;10376724;28;20339;-82
2023/11/17 14:00:25;;;;;;;7.40;6.63;;;6.90;99.90;;;7.49;100.00;98275.28;10368253;28;20308;-82
2023/11/17 14:05:29;;;;;;;7.30;6.60;;;6.90;99.90;;;7.49;100.00;98275.28;10374406;28;20670;-83
2023/11/17 14:10:33;;;;;;;6.37;5.87;;;6.90;99.90;;;7.46;100.00;98272.50;10378078;28;20339;-81
2023/11/17 14:15:38;;;;;;;4.83;4.43;;;6.90;99.90;;;7.49;100.00;98287.09;10367593;28;20245;-82
2023/11/17 14:20:56;;;;;;;4.40;3.97;;;6.90;99.90;;;7.47;100.00;98278.47;10368453;28;20233;-81
2023/11/17 14:25:59;;;;;;;4.80;4.40;;;6.80;99.90;;;7.36;100.00;98288.72;10376031;28;20609;-83
2023/11/17 14:31:07;;;;;;;5.03;4.47;;;6.80;99.90;;;7.33;100.00;98297.78;10366550;28;20232;-83
2023/11/17 14:36:12;;;;;;;4.50;4.20;;;6.70;99.90;;;7.35;100.00;98306.41;10372087;28;20235;-82
2023/11/17 14:41:16;;;;;;;5.40;4.90;;;6.70;99.90;;;7.30;100.00;98310.25;10379665;28;20241;-82
2023/11/17 14:46:23;;;;;;;13.00;10.97;;;6.80;99.90;;;7.23;100.00;98313.97;10379231;28;20220;-83
2023/11/17 14:51:28;;;;;;;9.50;8.70;;;6.70;99.90;;;7.21;100.00;98321.50;10380768;28;20226;-82
2023/11/17 14:56:31;;;;;;;6.47;5.87;;;6.70;99.90;;;7.20;100.00;98324.78;10367575;28;20313;-82
2023/11/17 15:01:39;;;;;;;6.73;6.13;;;6.70;99.90;;;7.21;100.00;98331.66;10372765;28;20226;-83
2023/11/17 15:06:44;;;;;;;6.00;5.50;;;6.70;99.90;;;7.18;100.00;98335.59;10386213;28;20229;-83
2023/11/17 15:11:47;;;;;;;5.10;4.80;;;6.60;99.90;;;7.04;100.00;98342.19;10382469;28;20273;-80
2023/11/17 15:16:52;;;;;;;4.30;4.00;;;6.50;99.90;;;7.00;100.00;98345.22;10378641;28;20225;-82
2023/11/17 15:21:58;;;;;;;5.17;4.77;;;6.50;99.90;;;7.02;100.00;98343.69;10382861;28;20234;-83
2023/11/17 15:27:01;;;;;;;4.87;4.50;;;6.40;99.90;;;6.93;100.00;98343.88;10387512;28;20306;-82
2023/11/17 15:32:07;;;;;;;3.90;3.60;;;6.40;99.90;;;6.90;100.00;98352.91;10382417;28;20226;-82
2023/11/17 15:37:12;;;;;;;4.90;4.50;;;6.40;99.90;;;6.89;100.00;98351.13;10382078;28;20773;-81
2023/11/17 15:42:16;;;;;;;3.70;3.40;;;6.40;99.90;;;6.89;100.00;98352.00;10384466;28;20269;-82
2023/11/17 15:47:21;;;;;;;4.63;4.17;;;6.40;99.90;;;6.86;100.00;98350.88;10385571;28;20317;-83
2023/11/17 15:52:24;;;;;;;6.27;5.77;;;6.40;99.90;;;6.85;100.00;98360.16;10384945;28;20230;-84
2023/11/17 15:57:27;;;;;;;8.30;7.60;;;6.30;99.90;;;6.92;100.00;98361.50;10392663;28;20223;-84
2023/11/17 16:02:33;;;;;;;13.77;11.20;;;6.30;99.90;;;6.83;100.00;98370.97;10381777;28;20316;-82
2023/11/17 16:07:36;;;;;;;12.60;11.50;;;6.30;99.90;;;6.79;100.00;98380.00;10382410;28;20595;-83
2023/11/17 16:12:40;;;;;;;8.50;7.77;;;6.30;99.90;;;6.81;100.00;98383.56;10379422;28;20310;-83
2023/11/17 16:17:45;;;;;;;12.00;10.90;;;6.40;99.90;;;6.87;100.00;98373.88;10380365;28;20325;-82
2023/11/17 16:22:49;;;;;;;11.33;10.43;;;6.40;99.90;;;6.80;100.00;98371.59;10382459;28;20227;-82
2023/11/17 16:27:53;;;;;;;13.60;12.27;;;6.30;99.90;;;6.75;100.00;98380.50;10379261;28;20253;-83
2023/11/17 16:32:57;;;;;;;15.33;13.47;;;6.30;99.90;;;6.77;100.00;98395.09;10384774;28;20230;-81
2023/11/17 16:38:04;;;;;;;17.63;15.87;;;6.30;99.90;;;6.77;100.00;98395.09;10378761;28;20265;-82
2023/11/17 16:43:09;;;;;;;14.47;12.90;;;6.30;99.90;;;6.77;100.00;98407.81;10378457;28;20280;-82
2023/11/17 16:48:13;;;;;;;14.20;12.90;;;6.30;99.90;;;6.69;100.00;98401.22;10392552;28;20312;-82
2023/11/17 16:53:20;;;;;;;13.80;12.70;;;6.20;99.90;;;6.77;100.00;98417.09;10384513;28;20229;-81
2023/11/17 16:58:23;;;;;;;14.87;13.57;;;6.30;99.90;;;6.77;100.00;98419.63;10382554;28;20281;-82
2023/11/17 17:03:28;;;;;;;11.33;10.33;;;6.40;99.90;;;6.90;100.00;98434.22;10384951;28;20233;-81
2023/11/17 17:08:34;;;;;;;13.03;11.20;;;6.40;99.90;;;6.85;100.00;98433.84;10381102;28;20745;-83
2023/11/17 17:13:40;;;;;;;10.77;9.87;;;6.40;99.90;;;6.87;100.00;98433.97;10377378;28;20584;-81
2023/11/17 17:18:44;;;;;;;12.73;11.53;;;6.40;99.90;;;6.85;100.00;98440.56;10377603;28;20230;-80
2023/11/17 17:23:48;;;;;;;13.50;12.37;;;6.40;99.90;;;6.87;100.00;98442.47;10372310;28;20706;-80
2023/11/17 17:28:51;;;;;;;14.40;13.00;;;6.40;99.90;;;6.85;100.00;98449.06;10369371;28;20230;-84
2023/11/17 17:33:56;;;;;;;14.47;13.27;;;6.40;99.90;;;6.86;100.00;98453.38;10371197;28;20234;-81
2023/11/17 17:38:59;;;;;;;14.07;12.77;;;6.40;99.90;;;6.89;100.00;98476.50;10373128;28;20234;-81
2023/11/17 17:44:02;;;;;;;15.83;14.23;;;6.40;99.90;;;6.93;100.00;98475.13;10369210;28;21169;-80
2023/11/17 17:49:16;;;;;;;16.13;14.13;;;6.40;99.90;;;6.89;100.00;98479.03;10204879;28;20323;-65
2023/11/17 17:54:19;;;;;;;14.00;12.77;;;6.40;99.90;;;6.88;100.00;98481.47;10111253;28;20316;-65
2023/11/17 17:59:23;;;;;;;16.40;14.70;;;6.40;99.90;;;6.92;100.00;98489.44;10112475;28;20231;-67
2023/11/17 18:04:28;;;;;;;17.70;15.90;;;6.40;99.90;;;6.94;100.00;98487.06;10107501;28;20235;-64
2023/11/17 18:09:32;;;;;;;19.17;15.60;;;6.50;99.90;;;7.00;100.00;98485.00;10165495;28;20246;-65
2023/11/17 18:14:35;;;;;;;14.63;13.13;;;6.40;99.90;;;6.96;100.00;98490.63;10147206;28;20227;-65
2023/11/17 18:19:42;;;;;;;12.27;11.10;;;6.40;99.90;;;6.91;100.00;98491.88;10150114;28;20305;-66
2023/11/17 18:24:45;;;;;;;13.97;11.50;;;6.40;99.90;;;6.82;100.00;98496.22;10113489;28;20250;-66
2023/11/17 18:29:49;;;;;;;19.27;14.00;;;6.40;99.90;;;6.86;100.00;98498.25;10096386;28;20238;-66
2023/11/17 18:34:53;;;;;;;16.70;14.87;;;6.40;99.90;;;6.87;100.00;98505.13;10140513;28;20216;-66
2023/11/17 18:39:58;;;;;;;18.23;16.43;;;6.40;99.90;;;6.91;100.00;98484.25;10210816;28;20258;-65
2023/11/17 18:45:03;;;;;;;18.27;16.30;;;6.40;99.90;;;6.90;100.00;98485.03;10108125;28;20222;-65
2023/11/17 18:50:10;;;;;;;20.60;18.50;;;6.40;99.90;;;6.83;100.00;98498.00;10145275;28;20729;-66
2023/11/17 18:55:16;;;;;;;21.40;19.13;;;6.30;99.90;;;6.77;100.00;98501.78;10164372;28;20226;-66
2023/11/17 19:00:19;;;;;;;19.90;17.37;;;6.30;99.90;;;6.77;100.00;98504.34;10117522;28;20345;-65
2023/11/17 19:05:26;;;;;;;18.80;16.93;;;6.20;99.90;;;6.77;100.00;98518.69;10127354;28;20238;-67
2023/11/17 19:10:29;;;;;;;18.50;16.60;;;6.20;99.90;;;6.75;100.00;98512.59;10115737;28;20234;-65
2023/11/17 19:15:32;;;;;;;14.70;11.67;;;6.20;99.90;;;6.82;100.00;98501.31;10121837;28;20239;-65
2023/11/17 19:20:37;;;;;;;12.10;10.83;;;6.20;99.90;;;6.69;100.00;98524.78;10112126;28;20439;-67
2023/11/17 19:25:40;;;;;;;15.00;13.53;;;6.10;99.90;;;6.68;100.00;98531.53;10121854;28;20272;-65
2023/11/17 19:30:43;;;;;;;16.80;15.20;;;6.20;99.90;;;6.65;100.00;98527.84;10104474;28;20245;-66
2023/11/17 19:35:48;;;;;;;12.33;11.27;;;6.10;99.90;;;6.61;100.00;98531.81;10112960;28;20223;-66
2023/11/17 19:41:10;;;;;;;11.57;10.67;;;6.00;99.90;;;6.66;100.00;98539.78;10113311;28;20709;-65
2023/11/17 19:46:14;;;;;;;11.43;10.43;;;6.00;99.90;;;6.62;100.00;98551.34;10120602;28;20235;-66
2023/11/17 19:51:19;;;;;;;13.23;12.03;;;5.90;99.90;;;6.48;100.00;98567.97;10120101;28;20231;-64
2023/11/17 19:56:22;;;;;;;10.53;9.57;;;5.90;99.90;;;6.47;100.00;98567.84;10114351;28;20230;-64
2023/11/17 20:01:25;;;;;;;10.37;9.40;;;5.80;99.90;;;6.46;100.00;98566.06;10117008;28;20333;-67
2023/11/17 20:06:30;;;;;;;10.23;9.33;;;5.80;99.90;;;6.45;100.00;98574.44;10121586;28;20619;-70
2023/11/17 20:11:33;;;;;;;9.70;8.90;;;5.80;99.90;;;6.46;100.00;98582.16;10115957;28;20279;-66
2023/11/17 20:16:36;;;;;;;7.47;6.87;;;5.80;99.90;;;6.48;100.00;98584.84;10142586;28;20253;-66
2023/11/17 20:21:43;;;;;;;6.70;6.20;;;5.70;99.90;;;6.50;100.00;98596.03;10126019;28;20659;-67
2023/11/17 20:26:49;;;;;;;6.80;6.30;;;5.80;99.90;;;6.42;100.00;98594.50;10109801;28;20230;-65
2023/11/17 20:31:53;;;;;;;9.00;8.30;;;5.70;99.90;;;6.24;100.00;98609.94;10101040;28;20255;-66
2023/11/17 20:36:58;;;;;;;8.27;7.57;;;5.70;99.90;;;6.19;100.00;98615.38;10122048;28;20246;-66
2023/11/17 20:42:01;;;;;;;9.43;8.63;;;5.70;99.90;;;6.14;100.00;98625.13;10122214;28;20233;-66
2023/11/17 20:47:05;;;;;;;7.60;7.03;;;5.70;99.90;;;6.23;100.00;98623.38;10115992;28;20689;-65
2023/11/17 20:52:15;;;;;;;7.63;6.70;;;5.70;99.90;;;6.23;100.00;98632.63;10122994;28;20277;-66
2023/11/17 20:57:18;;;;;;;7.57;6.87;;;5.70;99.90;;;6.22;100.00;98639.38;10244991;28;20243;-66
2023/11/17 21:02:22;;;;;;;8.77;8.07;;;5.70;99.90;;;6.19;100.00;98650.91;10170900;28;20230;-67
2023/11/17 21:07:27;;;;;;;11.63;10.63;;;5.70;99.90;;;6.06;100.00;98651.47;10119063;28;20239;-66
2023/11/17 21:12:32;;;;;;;11.20;10.17;;;5.60;99.90;;;6.05;100.00;98663.28;10136409;28;20293;-66
2023/11/17 21:17:35;;;;;;;9.37;8.67;;;5.60;99.90;;;6.06;100.00;98659.97;10166688;28;20230;-66